createdAt,value
2019-01-20T00:01:10.006Z,5.60
2019-01-20T00:03:39.920Z,5.47
2019-01-20T00:06:09.751Z,5.10
2019-01-20T00:08:39.509Z,5.17
2019-01-20T00:11:16.371Z,5.10
2019-01-20T00:13:40.763Z,6.00
2019-01-20T00:16:10.674Z,5.97
2019-01-20T00:18:40.434Z,6.27
2019-01-20T00:21:10.108Z,6.00
2019-01-20T00:23:39.803Z,6.73
2019-01-20T00:26:09.502Z,6.57
2019-01-20T00:28:39.262Z,5.67
2019-01-20T00:31:09.143Z,4.67
2019-01-20T00:33:38.903Z,6.00
2019-01-20T00:36:08.582Z,6.17
2019-01-20T00:38:38.426Z,5.70
2019-01-20T00:41:09.122Z,6.67
2019-01-20T00:43:38.871Z,5.37
2019-01-20T00:46:08.553Z,6.07
2019-01-20T00:48:38.246Z,6.40
2019-01-20T00:51:08.045Z,4.83
2019-01-20T00:53:37.825Z,7.00
2019-01-20T00:56:07.717Z,4.83
2019-01-20T00:58:38.374Z,4.83
2019-01-20T01:01:08.282Z,5.17
2019-01-20T01:03:38.074Z,4.80
2019-01-20T01:06:07.880Z,6.33
2019-01-20T01:08:37.625Z,5.13
2019-01-20T01:11:07.406Z,6.23
2019-01-20T01:13:37.375Z,5.80
2019-01-20T01:16:08.162Z,5.47
2019-01-20T01:18:37.943Z,5.57
2019-01-20T01:21:07.761Z,5.13
2019-01-20T01:23:37.637Z,5.40
2019-01-20T01:26:07.345Z,5.33
2019-01-20T01:28:37.189Z,5.97
2019-01-20T01:31:07.027Z,5.13
2019-01-20T01:33:36.834Z,5.83
2019-01-20T01:36:06.610Z,4.63
2019-01-20T01:38:36.377Z,5.43
2019-01-20T01:41:07.196Z,5.20
2019-01-20T01:43:37.013Z,8.87
2019-01-20T01:46:06.710Z,5.97
2019-01-20T01:48:36.461Z,5.67
2019-01-20T01:51:06.222Z,4.53
2019-01-20T01:53:35.927Z,5.17
2019-01-20T01:56:05.705Z,5.07
2019-01-20T01:58:35.402Z,6.03
2019-01-20T02:01:05.688Z,4.93
2019-01-20T02:03:35.451Z,5.80
2019-01-20T02:06:05.280Z,4.50
2019-01-20T02:08:35.154Z,6.00
2019-01-20T02:11:04.994Z,5.33
2019-01-20T02:13:34.798Z,6.27
2019-01-20T02:16:05.200Z,5.80
2019-01-20T02:18:34.971Z,4.93
2019-01-20T02:21:04.891Z,5.53
2019-01-20T02:23:34.760Z,5.60
2019-01-20T02:26:04.589Z,5.13
2019-01-20T02:28:34.281Z,5.80
2019-01-20T02:31:04.151Z,5.43
2019-01-20T02:33:33.960Z,6.30
2019-01-20T02:36:03.834Z,5.40
2019-01-20T02:38:33.638Z,5.73
2019-01-20T02:41:03.521Z,5.50
2019-01-20T02:43:33.267Z,5.37
2019-01-20T02:46:03.044Z,5.50
2019-01-20T02:48:32.738Z,5.83
2019-01-20T02:51:02.427Z,5.47
2019-01-20T02:53:32.294Z,5.77
2019-01-20T02:56:02.008Z,5.70
2019-01-20T02:58:31.772Z,4.63
2019-01-20T03:01:01.790Z,6.60
2019-01-20T03:03:31.812Z,5.03
2019-01-20T03:06:02.619Z,5.70
2019-01-20T03:08:32.373Z,5.97
2019-01-20T03:11:02.069Z,5.53
2019-01-20T03:13:31.779Z,5.07
2019-01-20T03:16:01.611Z,5.70
2019-01-20T03:18:31.895Z,6.30
2019-01-20T03:21:01.694Z,5.73
2019-01-20T03:23:31.417Z,6.43
2019-01-20T03:26:01.219Z,5.47
2019-01-20T03:28:30.966Z,6.07
2019-01-20T03:31:00.699Z,6.43
2019-01-20T03:33:30.384Z,5.33
2019-01-20T03:36:00.083Z,5.17
2019-01-20T03:38:29.867Z,5.37
2019-01-20T03:40:59.671Z,5.73
2019-01-20T03:43:29.506Z,5.00
2019-01-20T03:45:59.346Z,8.23
2019-01-20T03:48:29.115Z,6.43
2019-01-20T03:50:58.898Z,5.40
2019-01-20T03:53:28.684Z,5.33
2019-01-20T03:55:58.529Z,5.63
2019-01-20T03:58:28.374Z,6.13
2019-01-20T04:00:58.174Z,4.90
2019-01-20T04:03:27.896Z,5.80
2019-01-20T04:05:57.650Z,6.07
2019-01-20T04:08:27.358Z,6.53
2019-01-20T04:10:57.066Z,5.63
2019-01-20T04:13:26.766Z,6.23
2019-01-20T04:15:56.509Z,6.77
2019-01-20T04:18:26.232Z,5.57
2019-01-20T04:20:55.968Z,5.10
2019-01-20T04:23:25.735Z,6.37
2019-01-20T04:25:55.425Z,5.90
2019-01-20T04:28:25.228Z,5.70
2019-01-20T04:30:54.934Z,7.13
2019-01-20T04:33:24.744Z,6.37
2019-01-20T04:35:54.436Z,5.43
2019-01-20T04:38:24.133Z,5.10
2019-01-20T04:40:53.898Z,5.57
2019-01-20T04:43:23.607Z,5.20
2019-01-20T04:45:53.312Z,5.50
2019-01-20T04:48:22.989Z,5.73
2019-01-20T04:50:52.727Z,6.70
2019-01-20T04:53:22.444Z,6.57
2019-01-20T04:55:52.141Z,6.00
2019-01-20T04:58:22.113Z,5.40
2019-01-20T05:00:51.931Z,6.00
2019-01-20T05:03:21.618Z,6.40
2019-01-20T05:05:51.326Z,5.40
2019-01-20T05:08:21.092Z,6.23
2019-01-20T05:10:50.786Z,6.10
2019-01-20T05:13:20.481Z,7.23
2019-01-20T05:15:50.233Z,6.37
2019-01-20T05:18:19.934Z,6.57
2019-01-20T05:20:49.646Z,6.53
2019-01-20T05:23:19.354Z,5.43
2019-01-20T05:25:49.062Z,6.57
2019-01-20T05:28:18.779Z,6.20
2019-01-20T05:30:48.462Z,5.93
2019-01-20T05:33:18.155Z,6.13
2019-01-20T05:35:47.995Z,6.03
2019-01-20T05:38:17.711Z,5.97
2019-01-20T05:40:47.417Z,6.17
2019-01-20T05:43:17.125Z,6.37
2019-01-20T05:45:46.990Z,6.83
2019-01-20T05:48:16.747Z,5.83
2019-01-20T05:50:46.438Z,6.57
2019-01-20T05:53:16.193Z,7.30
2019-01-20T05:55:45.922Z,6.20
2019-01-20T05:58:15.689Z,5.97
2019-01-20T06:00:45.445Z,6.90
2019-01-20T06:03:15.142Z,6.20
2019-01-20T06:05:45.115Z,6.00
2019-01-20T06:08:14.830Z,7.40
2019-01-20T06:10:44.584Z,5.43
2019-01-20T06:13:14.279Z,5.50
2019-01-20T06:15:44.978Z,6.27
2019-01-20T06:18:14.818Z,6.10
2019-01-20T06:20:44.731Z,5.83
2019-01-20T06:23:14.546Z,6.13
2019-01-20T06:25:44.394Z,5.90
2019-01-20T06:28:14.072Z,5.67
2019-01-20T06:30:43.878Z,5.57
2019-01-20T06:33:13.581Z,8.27
2019-01-20T06:35:43.250Z,6.03
2019-01-20T06:38:14.075Z,5.93
2019-01-20T06:40:43.827Z,5.83
2019-01-20T06:43:13.900Z,5.97
2019-01-20T06:45:43.635Z,5.90
2019-01-20T06:48:13.336Z,5.83
2019-01-20T06:50:43.103Z,5.47
2019-01-20T06:53:12.783Z,5.10
2019-01-20T06:55:42.470Z,5.23
2019-01-20T06:58:12.243Z,6.03
2019-01-20T07:00:41.923Z,5.93
2019-01-20T07:03:11.643Z,5.97
2019-01-20T07:05:41.419Z,6.47
2019-01-20T07:08:11.245Z,5.77
2019-01-20T07:10:41.090Z,6.00
2019-01-20T07:13:11.395Z,5.50
2019-01-20T07:15:41.268Z,5.60
2019-01-20T07:18:10.958Z,6.47
2019-01-20T07:20:40.642Z,5.70
2019-01-20T07:23:10.350Z,6.80
2019-01-20T07:25:40.070Z,5.93
2019-01-20T07:28:09.743Z,6.20
2019-01-20T07:30:39.507Z,5.87
2019-01-20T07:33:09.334Z,5.33
2019-01-20T07:35:39.042Z,5.43
2019-01-20T07:38:08.813Z,6.90
2019-01-20T07:40:38.532Z,6.43
2019-01-20T07:43:08.262Z,5.97
2019-01-20T07:45:38.020Z,5.67
2019-01-20T07:48:07.854Z,6.43
2019-01-20T07:50:37.535Z,5.30
2019-01-20T07:53:07.288Z,5.37
2019-01-20T07:55:36.970Z,5.17
2019-01-20T07:58:06.826Z,5.37
2019-01-20T08:00:36.515Z,5.27
2019-01-20T08:03:06.327Z,4.63
2019-01-20T08:05:36.015Z,5.33
2019-01-20T08:08:05.875Z,5.57
2019-01-20T08:10:35.667Z,6.53
2019-01-20T08:13:05.538Z,6.53
2019-01-20T08:15:35.374Z,5.70
2019-01-20T08:18:05.461Z,5.23
2019-01-20T08:20:35.235Z,6.17
2019-01-20T08:23:04.991Z,6.37
2019-01-20T08:25:35.058Z,5.47
2019-01-20T08:28:04.907Z,6.00
2019-01-20T08:30:34.625Z,6.10
2019-01-20T08:33:04.426Z,5.50
2019-01-20T08:35:34.166Z,5.57
2019-01-20T08:38:04.178Z,6.53
2019-01-20T08:40:34.049Z,4.93
2019-01-20T08:43:03.950Z,5.40
2019-01-20T08:46:04.590Z,5.43
2019-01-20T08:48:34.510Z,5.43
2019-01-20T08:51:04.590Z,6.53
2019-01-20T08:53:34.297Z,5.90
2019-01-20T08:56:05.110Z,6.20
2019-01-20T08:58:34.822Z,5.77
2019-01-20T09:01:04.658Z,5.77
2019-01-20T09:03:34.434Z,6.00
2019-01-20T09:06:04.382Z,7.00
2019-01-20T09:08:34.223Z,5.97
2019-01-20T09:11:04.101Z,5.87
2019-01-20T09:13:39.542Z,6.67
2019-01-20T09:16:05.718Z,4.80
2019-01-20T09:18:35.498Z,5.37
2019-01-20T09:21:05.414Z,5.57
2019-01-20T09:23:35.103Z,6.37
2019-01-20T09:26:05.028Z,5.13
2019-01-20T09:28:34.726Z,5.60
2019-01-20T09:31:04.499Z,5.83
2019-01-20T09:33:34.386Z,5.83
2019-01-20T09:36:04.580Z,6.53
2019-01-20T09:38:34.334Z,5.30
2019-01-20T09:41:05.213Z,5.70
2019-01-20T09:43:35.088Z,5.53
2019-01-20T09:46:05.031Z,6.17
2019-01-20T09:48:34.726Z,6.10
2019-01-20T09:51:04.514Z,5.70
2019-01-20T09:53:34.290Z,5.73
2019-01-20T09:56:04.073Z,6.27
2019-01-20T09:58:34.040Z,5.60
2019-01-20T10:01:03.807Z,6.33
2019-01-20T10:03:33.582Z,5.53
2019-01-20T10:06:03.512Z,5.30
2019-01-20T10:08:33.193Z,4.47
2019-01-20T10:11:02.916Z,4.77
2019-01-20T10:13:32.598Z,4.00
2019-01-20T10:16:02.418Z,4.33
2019-01-20T10:18:32.098Z,4.73
2019-01-20T10:21:01.952Z,3.93
2019-01-20T10:23:31.694Z,3.43
2019-01-20T10:26:01.390Z,3.57
2019-01-20T10:28:31.155Z,4.07
2019-01-20T10:31:00.922Z,4.40
2019-01-20T10:33:30.698Z,4.30
2019-01-20T10:36:05.118Z,4.40
2019-01-20T10:38:37.195Z,4.03
2019-01-20T10:41:06.479Z,3.53
2019-01-20T10:43:36.347Z,4.23
2019-01-20T10:46:06.094Z,4.03
2019-01-20T10:48:35.938Z,3.67
2019-01-20T10:51:05.847Z,3.40
2019-01-20T10:53:35.611Z,3.53
2019-01-20T10:56:05.454Z,3.73
2019-01-20T10:58:35.306Z,3.53
2019-01-20T11:01:05.158Z,2.77
2019-01-20T11:03:34.922Z,4.00
2019-01-20T11:06:04.890Z,3.47
2019-01-20T11:08:34.574Z,3.23
2019-01-20T11:11:04.439Z,3.23
2019-01-20T11:13:34.262Z,3.80
2019-01-20T11:16:04.202Z,3.30
2019-01-20T11:18:33.926Z,2.97
2019-01-20T11:21:04.042Z,2.83
2019-01-20T11:23:34.114Z,3.17
2019-01-20T11:26:04.089Z,3.23
2019-01-20T11:28:33.766Z,3.93
2019-01-20T11:31:03.546Z,3.83
2019-01-20T11:33:33.310Z,3.67
2019-01-20T11:36:03.150Z,2.93
2019-01-20T11:38:33.026Z,3.00
2019-01-20T11:41:02.706Z,3.87
2019-01-20T11:43:32.526Z,4.00
2019-01-20T11:46:02.198Z,3.17
2019-01-20T11:48:31.882Z,3.40
2019-01-20T11:51:01.666Z,3.40
2019-01-20T11:53:31.470Z,4.67
2019-01-20T11:56:01.166Z,3.63
2019-01-20T11:58:30.854Z,3.77
2019-01-20T12:01:00.541Z,3.40
2019-01-20T12:03:30.351Z,3.00
2019-01-20T12:06:00.098Z,4.20
2019-01-20T12:08:30.787Z,3.23
2019-01-20T12:11:00.629Z,3.37
2019-01-20T12:13:30.702Z,3.43
2019-01-20T12:16:01.098Z,2.97
2019-01-20T12:18:30.782Z,2.67
2019-01-20T12:21:00.550Z,2.90
2019-01-20T12:23:30.346Z,3.10
2019-01-20T12:26:00.092Z,2.77
2019-01-20T12:28:29.778Z,3.20
2019-01-20T12:30:59.503Z,2.93
2019-01-20T12:33:29.226Z,2.27
2019-01-20T12:35:58.994Z,2.83
2019-01-20T12:38:29.062Z,3.10
2019-01-20T12:40:58.747Z,3.27
2019-01-20T12:43:28.596Z,3.17
2019-01-20T12:45:58.398Z,3.40
2019-01-20T12:48:28.168Z,3.50
2019-01-20T12:50:59.158Z,3.10
2019-01-20T12:53:28.835Z,3.00
2019-01-20T12:55:58.611Z,3.20
2019-01-20T12:58:28.459Z,3.40
2019-01-20T13:00:58.506Z,2.30
2019-01-20T13:03:28.350Z,2.60
2019-01-20T13:05:58.215Z,3.07
2019-01-20T13:08:27.976Z,2.83
2019-01-20T13:10:57.774Z,3.23
2019-01-20T13:13:27.566Z,2.40
2019-01-20T13:15:57.397Z,2.70
2019-01-20T13:18:27.136Z,3.33
2019-01-20T13:20:57.237Z,2.13
2019-01-20T13:23:27.077Z,2.37
2019-01-20T13:25:56.739Z,4.00
2019-01-20T13:28:26.445Z,2.57
2019-01-20T13:30:56.186Z,2.47
2019-01-20T13:33:25.994Z,2.60
2019-01-20T13:35:55.824Z,2.67
2019-01-20T13:38:26.696Z,2.90
2019-01-20T13:41:02.054Z,2.97
2019-01-20T13:43:33.422Z,3.10
2019-01-20T13:46:03.449Z,2.33
2019-01-20T13:48:34.288Z,1.60
2019-01-20T13:51:04.221Z,3.27
2019-01-20T13:53:33.928Z,2.97
2019-01-20T13:56:03.762Z,2.87
2019-01-20T13:58:33.541Z,2.80
2019-01-20T14:01:03.396Z,2.70
2019-01-20T14:03:33.178Z,2.90
2019-01-20T14:06:02.859Z,1.90
2019-01-20T14:08:32.555Z,2.20
2019-01-20T14:11:02.302Z,3.63
2019-01-20T14:13:32.057Z,2.83
2019-01-20T14:16:01.765Z,2.70
2019-01-20T14:18:31.527Z,2.47
2019-01-20T14:21:01.434Z,2.77
2019-01-20T14:23:31.118Z,2.90
2019-01-20T14:26:00.866Z,2.80
2019-01-20T14:28:30.628Z,3.13
2019-01-20T14:31:00.325Z,3.60
2019-01-20T14:33:30.018Z,4.80
2019-01-20T14:35:59.862Z,4.13
2019-01-20T14:38:29.586Z,3.80
2019-01-20T14:40:59.343Z,3.87
2019-01-20T14:43:29.042Z,4.30
2019-01-20T14:45:58.877Z,4.70
2019-01-20T14:48:28.598Z,4.60
2019-01-20T14:50:58.274Z,3.60
2019-01-20T14:53:28.118Z,4.47
2019-01-20T14:55:57.794Z,4.63
2019-01-20T14:58:27.499Z,4.60
2019-01-20T15:00:57.310Z,5.00
2019-01-20T15:03:27.066Z,4.80
2019-01-20T15:05:56.747Z,6.17
2019-01-20T15:08:26.507Z,5.60
2019-01-20T15:10:56.187Z,4.33
2019-01-20T15:13:25.950Z,4.00
2019-01-20T15:15:55.717Z,4.83
2019-01-20T15:18:25.417Z,5.00
2019-01-20T15:20:55.094Z,4.57
2019-01-20T15:23:24.867Z,4.80
2019-01-20T15:25:54.571Z,4.67
2019-01-20T15:28:24.409Z,4.90
2019-01-20T15:30:54.233Z,4.47
2019-01-20T15:33:24.166Z,5.70
2019-01-20T15:35:53.994Z,4.83
2019-01-20T15:38:23.826Z,4.93
2019-01-20T15:40:53.562Z,6.53
2019-01-20T15:43:23.263Z,4.73
2019-01-20T15:45:52.942Z,5.30
2019-01-20T15:48:22.629Z,5.77
2019-01-20T15:50:52.387Z,5.43
2019-01-20T15:53:22.066Z,4.97
2019-01-20T15:55:51.828Z,5.40
2019-01-20T15:58:21.502Z,4.87
2019-01-20T16:00:51.289Z,5.17
2019-01-20T16:03:21.014Z,4.73
2019-01-20T16:05:50.841Z,4.60
2019-01-20T16:08:20.655Z,5.07
2019-01-20T16:10:50.350Z,5.60
2019-01-20T16:13:20.093Z,6.20
2019-01-20T16:15:49.855Z,5.20
2019-01-20T16:18:19.563Z,5.77
2019-01-20T16:20:49.470Z,6.30
2019-01-20T16:23:19.295Z,5.93
2019-01-20T16:25:49.245Z,5.03
2019-01-20T16:28:18.988Z,5.37
2019-01-20T16:30:48.854Z,6.17
2019-01-20T16:33:18.665Z,5.00
2019-01-20T16:35:48.472Z,4.80
2019-01-20T16:38:18.413Z,5.63
2019-01-20T16:40:48.296Z,4.77
2019-01-20T16:43:18.047Z,4.40
2019-01-20T16:45:48.770Z,5.17
2019-01-20T16:48:18.544Z,5.77
2019-01-20T16:50:48.398Z,6.00
2019-01-20T16:53:18.158Z,5.73
2019-01-20T16:55:48.043Z,5.67
2019-01-20T16:58:17.730Z,5.13
2019-01-20T17:00:47.670Z,5.33
2019-01-20T17:03:17.563Z,5.50
2019-01-20T17:05:48.509Z,5.53
2019-01-20T17:08:18.420Z,5.67
2019-01-20T17:10:48.118Z,6.50
2019-01-20T17:13:17.978Z,6.87
2019-01-20T17:15:47.746Z,5.00
2019-01-20T17:18:17.679Z,6.83
2019-01-20T17:20:47.501Z,7.33
2019-01-20T17:23:17.410Z,5.97
2019-01-20T17:25:47.170Z,7.30
2019-01-20T17:28:16.861Z,8.53
2019-01-20T17:30:46.698Z,8.33
2019-01-20T17:33:16.519Z,7.63
2019-01-20T17:35:47.043Z,6.67
2019-01-20T17:38:16.981Z,7.10
2019-01-20T17:40:46.754Z,5.47
2019-01-20T17:43:16.594Z,7.47
2019-01-20T17:45:48.553Z,6.47
2019-01-20T17:48:17.887Z,5.37
2019-01-20T17:50:47.918Z,8.70
2019-01-20T17:53:17.692Z,7.97
2019-01-20T17:55:47.378Z,8.40
2019-01-20T17:58:18.362Z,12.07
2019-01-20T18:00:54.890Z,13.53
2019-01-20T18:03:24.786Z,9.33
2019-01-20T18:05:54.811Z,9.77
2019-01-20T18:08:24.697Z,10.47
2019-01-20T18:10:54.383Z,8.63
2019-01-20T18:13:24.241Z,9.27
2019-01-20T18:15:54.716Z,8.67
2019-01-20T18:18:24.741Z,7.70
2019-01-20T18:20:55.494Z,8.87
2019-01-20T18:23:25.265Z,8.73
2019-01-20T18:25:55.119Z,9.77
2019-01-20T18:28:24.882Z,8.97
2019-01-20T18:30:54.631Z,8.77
2019-01-20T18:33:24.402Z,7.20
2019-01-20T18:35:54.206Z,8.90
2019-01-20T18:38:24.084Z,10.47
2019-01-20T18:40:55.030Z,15.30
2019-01-20T18:43:24.892Z,12.40
2019-01-20T18:46:01.385Z,10.40
2019-01-20T18:48:26.290Z,9.33
2019-01-20T18:50:55.999Z,7.07
2019-01-20T18:53:25.848Z,8.37
2019-01-20T18:55:55.559Z,8.80
2019-01-20T18:58:25.318Z,8.00
2019-01-20T19:00:56.120Z,8.70
2019-01-20T19:03:25.932Z,8.63
2019-01-20T19:05:55.738Z,7.93
2019-01-20T19:08:25.504Z,7.80
2019-01-20T19:10:55.246Z,8.33
2019-01-20T19:13:26.010Z,7.87
2019-01-20T19:15:55.779Z,7.63
2019-01-20T19:18:25.541Z,8.90
2019-01-20T19:20:55.380Z,9.13
2019-01-20T19:23:25.172Z,7.73
2019-01-20T19:25:54.962Z,8.73
2019-01-20T19:28:24.687Z,8.13
2019-01-20T19:30:54.485Z,10.27
2019-01-20T19:33:24.186Z,9.63
2019-01-20T19:35:53.898Z,9.93
2019-01-20T19:38:23.593Z,9.33
2019-01-20T19:40:53.338Z,9.43
2019-01-20T19:43:23.191Z,10.80
2019-01-20T19:45:52.882Z,9.47
2019-01-20T19:48:22.663Z,10.33
2019-01-20T19:50:52.387Z,9.20
2019-01-20T19:53:23.122Z,8.93
2019-01-20T19:55:52.885Z,10.17
2019-01-20T19:58:22.786Z,10.23
2019-01-20T20:00:53.491Z,10.63
2019-01-20T20:03:23.190Z,10.90
2019-01-20T20:05:52.903Z,11.77
2019-01-20T20:08:22.706Z,11.10
2019-01-20T20:10:52.402Z,10.03
2019-01-20T20:13:22.111Z,10.93
2019-01-20T20:15:51.938Z,11.23
2019-01-20T20:18:21.731Z,13.83
2019-01-20T20:20:51.606Z,13.03
2019-01-20T20:23:21.304Z,13.10
2019-01-20T20:25:51.114Z,10.70
2019-01-20T20:28:20.802Z,11.30
2019-01-20T20:30:50.510Z,12.87
2019-01-20T20:33:20.215Z,12.27
2019-01-20T20:35:49.911Z,12.13
2019-01-20T20:38:19.754Z,13.17
2019-01-20T20:40:49.630Z,12.40
2019-01-20T20:43:19.378Z,11.80
2019-01-20T20:45:49.151Z,12.53
2019-01-20T20:48:18.847Z,10.37
2019-01-20T20:50:48.617Z,12.23
2019-01-20T20:53:18.311Z,12.60
2019-01-20T20:55:47.996Z,11.73
2019-01-20T20:58:17.704Z,11.67
2019-01-20T21:00:49.956Z,12.10
2019-01-20T21:03:22.241Z,13.53
2019-01-20T21:05:52.104Z,13.50
2019-01-20T21:08:21.968Z,14.57
2019-01-20T21:10:51.657Z,13.50
2019-01-20T21:13:21.584Z,13.70
2019-01-20T21:15:51.457Z,11.60
2019-01-20T21:18:21.304Z,12.43
2019-01-20T21:20:52.707Z,13.93
2019-01-20T21:23:22.611Z,12.47
2019-01-20T21:25:52.377Z,12.33
2019-01-20T21:28:22.066Z,12.87
2019-01-20T21:30:51.926Z,11.73
2019-01-20T21:33:21.621Z,12.97
2019-01-20T21:35:51.331Z,11.33
2019-01-20T21:38:22.159Z,12.97
2019-01-20T21:40:51.853Z,12.33
2019-01-20T21:43:21.619Z,10.90
2019-01-20T21:45:51.378Z,12.53
2019-01-20T21:48:21.090Z,11.80
2019-01-20T21:50:50.940Z,11.70
2019-01-20T21:53:20.734Z,10.73
2019-01-20T21:55:50.494Z,10.47
2019-01-20T21:58:20.187Z,9.67
2019-01-20T22:00:49.968Z,11.50
2019-01-20T22:03:19.687Z,11.43
2019-01-20T22:05:49.470Z,11.03
2019-01-20T22:08:20.233Z,9.87
2019-01-20T22:10:49.946Z,11.37
2019-01-20T22:13:19.758Z,10.17
2019-01-20T22:15:49.605Z,12.33
2019-01-20T22:18:19.307Z,11.00
2019-01-20T22:20:49.090Z,10.77
2019-01-20T22:23:18.791Z,9.50
2019-01-20T22:25:48.570Z,10.87
2019-01-20T22:28:18.271Z,11.83
2019-01-20T22:30:48.030Z,11.83
2019-01-20T22:33:17.730Z,9.80
2019-01-20T22:35:47.470Z,12.13
2019-01-20T22:38:17.150Z,10.60
2019-01-20T22:40:46.866Z,11.13
2019-01-20T22:43:16.572Z,13.20
2019-01-20T22:45:46.318Z,14.13
2019-01-20T22:48:16.086Z,13.30
2019-01-20T22:50:45.782Z,13.00
2019-01-20T22:53:15.547Z,12.63
2019-01-20T22:55:45.399Z,13.73
2019-01-20T22:58:15.231Z,13.73
2019-01-20T23:00:53.151Z,11.97
2019-01-20T23:03:23.006Z,11.50
2019-01-20T23:05:54.317Z,11.90
2019-01-20T23:08:24.314Z,12.80
2019-01-20T23:10:54.226Z,12.87
2019-01-20T23:13:23.998Z,12.33
2019-01-20T23:15:53.875Z,12.67
2019-01-20T23:18:23.835Z,13.27
2019-01-20T23:20:53.870Z,12.30
2019-01-20T23:23:23.638Z,12.40
2019-01-20T23:25:53.327Z,11.87
2019-01-20T23:28:23.030Z,11.83
2019-01-20T23:30:52.798Z,13.10
2019-01-20T23:33:22.679Z,11.83
2019-01-20T23:35:52.423Z,11.67
2019-01-20T23:38:22.146Z,12.27
2019-01-20T23:40:51.923Z,12.67
2019-01-20T23:43:21.686Z,13.30
2019-01-20T23:45:51.378Z,12.77
2019-01-20T23:48:21.222Z,13.47
2019-01-20T23:50:51.054Z,13.47
2019-01-20T23:53:20.857Z,12.23
2019-01-20T23:55:50.534Z,12.57
2019-01-20T23:58:20.300Z,14.27
